sensor_id;sensor_type;location;lat;lon;timestamp;temperature;humidity
25280;DHT22;13225;47.804;12.116;2022-07-22T00:02:09;16.80;99.90
25280;DHT22;13225;47.804;12.116;2022-07-22T00:04:35;16.80;99.90
25280;DHT22;13225;47.804;12.116;2022-07-22T00:07:00;16.70;99.90
25280;DHT22;13225;47.804;12.116;2022-07-22T00:09:26;16.80;99.90
25280;DHT22;13225;47.804;12.116;2022-07-22T00:11:52;16.70;99.90
25280;DHT22;13225;47.804;12.116;2022-07-22T00:14:18;16.70;99.90
25280;DHT22;13225;47.804;12.116;2022-07-22T00:16:43;16.70;99.90
25280;DHT22;13225;47.804;12.116;2022-07-22T00:19:09;16.70;99.90
25280;DHT22;13225;47.804;12.116;2022-07-22T00:21:35;16.60;99.90
25280;DHT22;13225;47.804;12.116;2022-07-22T00:24:02;16.60;99.90
25280;DHT22;13225;47.804;12.116;2022-07-22T00:26:27;16.70;99.90
25280;DHT22;13225;47.804;12.116;2022-07-22T00:28:53;16.70;99.90
25280;DHT22;13225;47.804;12.116;2022-07-22T00:31:19;16.60;99.90
25280;DHT22;13225;47.804;12.116;2022-07-22T00:33:44;16.70;99.90
25280;DHT22;13225;47.804;12.116;2022-07-22T00:36:10;16.60;99.90
25280;DHT22;13225;47.804;12.116;2022-07-22T00:38:37;16.70;99.90
25280;DHT22;13225;47.804;12.116;2022-07-22T00:41:03;16.70;99.90
25280;DHT22;13225;47.804;12.116;2022-07-22T00:43:55;16.70;99.90
25280;DHT22;13225;47.804;12.116;2022-07-22T00:46:22;16.80;99.90
25280;DHT22;13225;47.804;12.116;2022-07-22T00:48:48;16.70;99.90
25280;DHT22;13225;47.804;12.116;2022-07-22T00:51:14;16.70;99.90
25280;DHT22;13225;47.804;12.116;2022-07-22T00:53:41;16.60;99.90
25280;DHT22;13225;47.804;12.116;2022-07-22T00:56:07;16.70;99.90
25280;DHT22;13225;47.804;12.116;2022-07-22T00:58:32;16.70;99.90
25280;DHT22;13225;47.804;12.116;2022-07-22T01:00:58;16.80;99.90
25280;DHT22;13225;47.804;12.116;2022-07-22T01:03:24;16.60;99.90
25280;DHT22;13225;47.804;12.116;2022-07-22T01:05:49;16.50;99.90
25280;DHT22;13225;47.804;12.116;2022-07-22T01:08:15;16.50;99.90
25280;DHT22;13225;47.804;12.116;2022-07-22T01:10:41;16.40;99.90
25280;DHT22;13225;47.804;12.116;2022-07-22T01:13:06;16.30;99.90
25280;DHT22;13225;47.804;12.116;2022-07-22T01:15:32;16.30;99.90
25280;DHT22;13225;47.804;12.116;2022-07-22T01:17:59;16.30;99.90
25280;DHT22;13225;47.804;12.116;2022-07-22T01:20:25;16.30;99.90
25280;DHT22;13225;47.804;12.116;2022-07-22T01:22:51;16.30;99.90
25280;DHT22;13225;47.804;12.116;2022-07-22T01:25:17;16.30;99.90
25280;DHT22;13225;47.804;12.116;2022-07-22T01:27:43;16.30;99.90
25280;DHT22;13225;47.804;12.116;2022-07-22T01:30:09;16.30;99.90
25280;DHT22;13225;47.804;12.116;2022-07-22T01:32:35;16.20;99.90
25280;DHT22;13225;47.804;12.116;2022-07-22T01:35:00;16.20;99.90
25280;DHT22;13225;47.804;12.116;2022-07-22T01:37:26;16.20;99.90
25280;DHT22;13225;47.804;12.116;2022-07-22T01:39:52;16.10;99.90
25280;DHT22;13225;47.804;12.116;2022-07-22T01:42:17;16.10;99.90
25280;DHT22;13225;47.804;12.116;2022-07-22T01:44:43;16.10;99.90
25280;DHT22;13225;47.804;12.116;2022-07-22T01:47:09;16.00;99.90
25280;DHT22;13225;47.804;12.116;2022-07-22T01:49:35;15.90;99.90
25280;DHT22;13225;47.804;12.116;2022-07-22T01:52:03;16.00;99.90
25280;DHT22;13225;47.804;12.116;2022-07-22T01:54:28;15.90;99.90
25280;DHT22;13225;47.804;12.116;2022-07-22T01:56:54;15.90;99.90
25280;DHT22;13225;47.804;12.116;2022-07-22T01:59:20;16.00;99.90
25280;DHT22;13225;47.804;12.116;2022-07-22T02:01:45;16.00;99.90
25280;DHT22;13225;47.804;12.116;2022-07-22T02:04:11;16.10;99.90
25280;DHT22;13225;47.804;12.116;2022-07-22T02:06:37;16.00;99.90
25280;DHT22;13225;47.804;12.116;2022-07-22T02:09:02;16.00;99.90
25280;DHT22;13225;47.804;12.116;2022-07-22T02:11:28;15.90;99.90
25280;DHT22;13225;47.804;12.116;2022-07-22T02:13:54;15.90;99.90
25280;DHT22;13225;47.804;12.116;2022-07-22T02:16:20;15.90;99.90
25280;DHT22;13225;47.804;12.116;2022-07-22T02:18:45;15.90;99.90
25280;DHT22;13225;47.804;12.116;2022-07-22T02:21:11;15.90;99.90
25280;DHT22;13225;47.804;12.116;2022-07-22T02:23:37;15.90;99.90
25280;DHT22;13225;47.804;12.116;2022-07-22T02:26:02;15.80;99.90
25280;DHT22;13225;47.804;12.116;2022-07-22T02:28:28;15.80;99.90
25280;DHT22;13225;47.804;12.116;2022-07-22T02:30:54;15.80;99.90
25280;DHT22;13225;47.804;12.116;2022-07-22T02:33:19;15.80;99.90
25280;DHT22;13225;47.804;12.116;2022-07-22T02:35:45;15.80;99.90
25280;DHT22;13225;47.804;12.116;2022-07-22T02:38:11;15.90;99.90
25280;DHT22;13225;47.804;12.116;2022-07-22T02:40:36;16.00;99.90
25280;DHT22;13225;47.804;12.116;2022-07-22T02:43:02;15.90;99.90
25280;DHT22;13225;47.804;12.116;2022-07-22T02:45:32;15.90;99.90
25280;DHT22;13225;47.804;12.116;2022-07-22T02:47:57;15.80;99.90
25280;DHT22;13225;47.804;12.116;2022-07-22T02:50:23;15.90;99.90
25280;DHT22;13225;47.804;12.116;2022-07-22T02:52:49;15.90;99.90
25280;DHT22;13225;47.804;12.116;2022-07-22T02:55:16;15.90;99.90
25280;DHT22;13225;47.804;12.116;2022-07-22T02:57:42;15.90;99.90
25280;DHT22;13225;47.804;12.116;2022-07-22T03:00:09;15.80;99.90
25280;DHT22;13225;47.804;12.116;2022-07-22T03:02:36;15.90;99.90
25280;DHT22;13225;47.804;12.116;2022-07-22T03:05:02;15.90;99.90
25280;DHT22;13225;47.804;12.116;2022-07-22T03:07:28;15.80;99.90
25280;DHT22;13225;47.804;12.116;2022-07-22T03:09:54;15.70;99.90
25280;DHT22;13225;47.804;12.116;2022-07-22T03:12:20;15.50;99.90
25280;DHT22;13225;47.804;12.116;2022-07-22T03:14:45;15.50;99.90
25280;DHT22;13225;47.804;12.116;2022-07-22T03:17:11;15.50;99.90
25280;DHT22;13225;47.804;12.116;2022-07-22T03:19:37;15.50;99.90
25280;DHT22;13225;47.804;12.116;2022-07-22T03:22:03;15.50;99.90
25280;DHT22;13225;47.804;12.116;2022-07-22T03:24:28;15.50;99.90
25280;DHT22;13225;47.804;12.116;2022-07-22T03:26:54;15.50;99.90
25280;DHT22;13225;47.804;12.116;2022-07-22T03:29:20;15.50;99.90
25280;DHT22;13225;47.804;12.116;2022-07-22T03:31:45;15.30;99.90
25280;DHT22;13225;47.804;12.116;2022-07-22T03:34:11;15.30;99.90
25280;DHT22;13225;47.804;12.116;2022-07-22T03:36:37;15.30;99.90
25280;DHT22;13225;47.804;12.116;2022-07-22T03:39:03;15.20;99.90
25280;DHT22;13225;47.804;12.116;2022-07-22T03:41:29;15.20;99.90
25280;DHT22;13225;47.804;12.116;2022-07-22T03:43:54;15.20;99.90
25280;DHT22;13225;47.804;12.116;2022-07-22T03:46:20;15.30;99.90
25280;DHT22;13225;47.804;12.116;2022-07-22T03:48:46;15.20;99.90
25280;DHT22;13225;47.804;12.116;2022-07-22T03:51:11;15.30;99.90
25280;DHT22;13225;47.804;12.116;2022-07-22T03:53:37;15.30;99.90
25280;DHT22;13225;47.804;12.116;2022-07-22T03:56:03;15.30;99.90
25280;DHT22;13225;47.804;12.116;2022-07-22T03:58:29;15.40;99.90
25280;DHT22;13225;47.804;12.116;2022-07-22T04:00:55;15.40;99.90
25280;DHT22;13225;47.804;12.116;2022-07-22T04:03:21;15.50;99.90
25280;DHT22;13225;47.804;12.116;2022-07-22T04:05:46;15.50;99.90
25280;DHT22;13225;47.804;12.116;2022-07-22T04:08:12;15.60;99.90
25280;DHT22;13225;47.804;12.116;2022-07-22T04:10:38;15.60;99.90
25280;DHT22;13225;47.804;12.116;2022-07-22T04:13:04;15.60;99.90
25280;DHT22;13225;47.804;12.116;2022-07-22T04:15:30;15.70;99.90
25280;DHT22;13225;47.804;12.116;2022-07-22T04:17:56;15.80;99.90
25280;DHT22;13225;47.804;12.116;2022-07-22T04:20:21;15.90;99.90
25280;DHT22;13225;47.804;12.116;2022-07-22T04:22:47;16.20;99.90
25280;DHT22;13225;47.804;12.116;2022-07-22T04:25:13;16.50;99.90
25280;DHT22;13225;47.804;12.116;2022-07-22T04:27:39;16.80;99.90
25280;DHT22;13225;47.804;12.116;2022-07-22T04:30:06;17.00;99.90
25280;DHT22;13225;47.804;12.116;2022-07-22T04:32:31;17.10;99.90
25280;DHT22;13225;47.804;12.116;2022-07-22T04:34:57;17.40;99.90
25280;DHT22;13225;47.804;12.116;2022-07-22T04:37:23;17.40;99.90
25280;DHT22;13225;47.804;12.116;2022-07-22T04:39:48;17.80;99.90
25280;DHT22;13225;47.804;12.116;2022-07-22T04:42:14;17.90;99.90
25280;DHT22;13225;47.804;12.116;2022-07-22T04:44:40;17.90;99.90
25280;DHT22;13225;47.804;12.116;2022-07-22T04:47:05;18.10;99.90
25280;DHT22;13225;47.804;12.116;2022-07-22T04:49:31;18.50;99.90
25280;DHT22;13225;47.804;12.116;2022-07-22T04:51:57;18.80;99.90
25280;DHT22;13225;47.804;12.116;2022-07-22T04:59:14;19.60;99.90
25280;DHT22;13225;47.804;12.116;2022-07-22T05:01:40;20.10;99.90
25280;DHT22;13225;47.804;12.116;2022-07-22T05:04:06;20.60;99.90
25280;DHT22;13225;47.804;12.116;2022-07-22T05:06:32;20.70;99.90
25280;DHT22;13225;47.804;12.116;2022-07-22T05:08:57;20.60;99.90
25280;DHT22;13225;47.804;12.116;2022-07-22T05:11:23;20.40;99.90
25280;DHT22;13225;47.804;12.116;2022-07-22T05:13:49;21.00;99.90
25280;DHT22;13225;47.804;12.116;2022-07-22T05:16:15;21.60;99.90
25280;DHT22;13225;47.804;12.116;2022-07-22T05:18:40;21.80;99.90
25280;DHT22;13225;47.804;12.116;2022-07-22T05:21:06;21.70;99.90
25280;DHT22;13225;47.804;12.116;2022-07-22T05:23:32;21.90;99.90
25280;DHT22;13225;47.804;12.116;2022-07-22T05:25:57;21.90;99.90
25280;DHT22;13225;47.804;12.116;2022-07-22T05:28:23;21.70;99.90
25280;DHT22;13225;47.804;12.116;2022-07-22T05:30:49;21.90;99.90
25280;DHT22;13225;47.804;12.116;2022-07-22T05:33:15;21.60;99.90
25280;DHT22;13225;47.804;12.116;2022-07-22T05:35:41;21.10;99.90
25280;DHT22;13225;47.804;12.116;2022-07-22T05:38:07;20.60;99.90
25280;DHT22;13225;47.804;12.116;2022-07-22T05:40:32;20.30;99.90
25280;DHT22;13225;47.804;12.116;2022-07-22T05:42:58;20.20;99.90
25280;DHT22;13225;47.804;12.116;2022-07-22T05:45:24;20.00;99.90
25280;DHT22;13225;47.804;12.116;2022-07-22T05:47:49;19.90;99.90
25280;DHT22;13225;47.804;12.116;2022-07-22T05:50:15;20.10;99.90
25280;DHT22;13225;47.804;12.116;2022-07-22T05:52:41;20.20;99.90
25280;DHT22;13225;47.804;12.116;2022-07-22T05:55:07;20.40;99.90
25280;DHT22;13225;47.804;12.116;2022-07-22T05:57:33;20.50;99.90
25280;DHT22;13225;47.804;12.116;2022-07-22T05:59:59;20.70;99.90
25280;DHT22;13225;47.804;12.116;2022-07-22T06:02:24;20.80;99.90
25280;DHT22;13225;47.804;12.116;2022-07-22T06:04:50;21.00;99.90
25280;DHT22;13225;47.804;12.116;2022-07-22T06:07:16;21.10;99.90
25280;DHT22;13225;47.804;12.116;2022-07-22T06:09:42;21.20;99.90
25280;DHT22;13225;47.804;12.116;2022-07-22T06:12:08;21.20;99.90
25280;DHT22;13225;47.804;12.116;2022-07-22T06:14:34;21.10;99.90
25280;DHT22;13225;47.804;12.116;2022-07-22T06:17:02;21.10;99.90
25280;DHT22;13225;47.804;12.116;2022-07-22T06:19:27;21.10;99.90
25280;DHT22;13225;47.804;12.116;2022-07-22T06:21:55;21.00;99.90
25280;DHT22;13225;47.804;12.116;2022-07-22T06:24:21;21.00;99.90
25280;DHT22;13225;47.804;12.116;2022-07-22T06:26:47;21.00;99.90
25280;DHT22;13225;47.804;12.116;2022-07-22T06:29:13;21.10;99.90
25280;DHT22;13225;47.804;12.116;2022-07-22T06:31:38;21.20;99.90
25280;DHT22;13225;47.804;12.116;2022-07-22T06:34:04;21.20;99.90
25280;DHT22;13225;47.804;12.116;2022-07-22T06:36:34;21.20;99.90
25280;DHT22;13225;47.804;12.116;2022-07-22T06:39:00;21.20;99.90
25280;DHT22;13225;47.804;12.116;2022-07-22T06:41:26;21.30;99.90
25280;DHT22;13225;47.804;12.116;2022-07-22T06:43:52;21.40;99.90
25280;DHT22;13225;47.804;12.116;2022-07-22T06:46:19;21.40;99.90
25280;DHT22;13225;47.804;12.116;2022-07-22T06:48:45;21.40;99.90
25280;DHT22;13225;47.804;12.116;2022-07-22T06:51:10;21.40;99.90
25280;DHT22;13225;47.804;12.116;2022-07-22T06:53:36;21.50;99.90
25280;DHT22;13225;47.804;12.116;2022-07-22T06:56:02;21.70;99.90
25280;DHT22;13225;47.804;12.116;2022-07-22T06:58:28;21.80;99.90
25280;DHT22;13225;47.804;12.116;2022-07-22T07:00:53;21.80;99.90
25280;DHT22;13225;47.804;12.116;2022-07-22T07:03:19;21.90;99.90
25280;DHT22;13225;47.804;12.116;2022-07-22T07:05:45;22.10;99.90
25280;DHT22;13225;47.804;12.116;2022-07-22T07:08:11;22.30;99.90
25280;DHT22;13225;47.804;12.116;2022-07-22T07:10:37;22.40;99.90
25280;DHT22;13225;47.804;12.116;2022-07-22T07:13:02;22.40;99.90
25280;DHT22;13225;47.804;12.116;2022-07-22T07:15:28;22.50;99.90
25280;DHT22;13225;47.804;12.116;2022-07-22T07:17:55;22.60;99.90
25280;DHT22;13225;47.804;12.116;2022-07-22T07:20:22;22.50;99.90
25280;DHT22;13225;47.804;12.116;2022-07-22T07:22:48;22.50;99.90
25280;DHT22;13225;47.804;12.116;2022-07-22T07:25:14;22.60;99.90
25280;DHT22;13225;47.804;12.116;2022-07-22T07:27:39;22.70;99.90
25280;DHT22;13225;47.804;12.116;2022-07-22T07:30:06;22.80;99.90
25280;DHT22;13225;47.804;12.116;2022-07-22T07:32:32;22.90;99.90
25280;DHT22;13225;47.804;12.116;2022-07-22T07:34:58;22.90;99.90
25280;DHT22;13225;47.804;12.116;2022-07-22T07:37:23;22.90;99.90
25280;DHT22;13225;47.804;12.116;2022-07-22T07:39:49;23.10;99.90
25280;DHT22;13225;47.804;12.116;2022-07-22T07:42:14;23.20;99.90
25280;DHT22;13225;47.804;12.116;2022-07-22T07:44:40;23.30;99.90
25280;DHT22;13225;47.804;12.116;2022-07-22T07:47:06;23.20;99.90
25280;DHT22;13225;47.804;12.116;2022-07-22T07:49:32;23.30;99.90
25280;DHT22;13225;47.804;12.116;2022-07-22T07:51:58;23.30;99.90
25280;DHT22;13225;47.804;12.116;2022-07-22T07:54:23;23.30;99.90
25280;DHT22;13225;47.804;12.116;2022-07-22T07:56:49;23.40;99.90
25280;DHT22;13225;47.804;12.116;2022-07-22T07:59:15;23.40;99.90
25280;DHT22;13225;47.804;12.116;2022-07-22T08:01:42;23.50;99.90
25280;DHT22;13225;47.804;12.116;2022-07-22T08:04:08;23.50;99.90
25280;DHT22;13225;47.804;12.116;2022-07-22T08:06:34;23.60;99.90
25280;DHT22;13225;47.804;12.116;2022-07-22T08:08:59;23.50;99.90
25280;DHT22;13225;47.804;12.116;2022-07-22T08:11:25;23.60;99.90
25280;DHT22;13225;47.804;12.116;2022-07-22T08:13:51;23.70;99.90
25280;DHT22;13225;47.804;12.116;2022-07-22T08:16:17;23.80;99.90
25280;DHT22;13225;47.804;12.116;2022-07-22T08:18:43;23.80;99.90
25280;DHT22;13225;47.804;12.116;2022-07-22T08:21:09;23.90;99.90
25280;DHT22;13225;47.804;12.116;2022-07-22T08:23:35;23.90;99.90
25280;DHT22;13225;47.804;12.116;2022-07-22T08:26:00;23.80;99.90
25280;DHT22;13225;47.804;12.116;2022-07-22T08:28:26;23.90;99.90
25280;DHT22;13225;47.804;12.116;2022-07-22T08:30:52;24.10;99.90
25280;DHT22;13225;47.804;12.116;2022-07-22T08:33:18;24.20;99.90
25280;DHT22;13225;47.804;12.116;2022-07-22T08:35:44;24.30;99.90
25280;DHT22;13225;47.804;12.116;2022-07-22T08:38:09;24.30;99.90
25280;DHT22;13225;47.804;12.116;2022-07-22T08:40:36;24.40;99.90
25280;DHT22;13225;47.804;12.116;2022-07-22T08:43:02;24.70;99.90
25280;DHT22;13225;47.804;12.116;2022-07-22T08:45:29;24.70;99.90
25280;DHT22;13225;47.804;12.116;2022-07-22T08:47:55;24.90;99.90
25280;DHT22;13225;47.804;12.116;2022-07-22T08:50:21;24.90;99.90
25280;DHT22;13225;47.804;12.116;2022-07-22T08:52:47;25.00;99.90
25280;DHT22;13225;47.804;12.116;2022-07-22T08:55:12;24.80;99.90
25280;DHT22;13225;47.804;12.116;2022-07-22T08:57:46;24.90;99.90
25280;DHT22;13225;47.804;12.116;2022-07-22T09:00:18;25.10;99.90
25280;DHT22;13225;47.804;12.116;2022-07-22T09:02:44;25.20;99.90
25280;DHT22;13225;47.804;12.116;2022-07-22T09:05:12;25.20;99.90
25280;DHT22;13225;47.804;12.116;2022-07-22T09:07:42;25.20;99.90
25280;DHT22;13225;47.804;12.116;2022-07-22T09:10:11;25.30;99.90
25280;DHT22;13225;47.804;12.116;2022-07-22T09:12:57;25.50;99.90
25280;DHT22;13225;47.804;12.116;2022-07-22T09:15:31;25.70;99.90
25280;DHT22;13225;47.804;12.116;2022-07-22T09:17:58;25.60;99.90
25280;DHT22;13225;47.804;12.116;2022-07-22T09:20:24;25.60;99.90
25280;DHT22;13225;47.804;12.116;2022-07-22T09:22:52;25.70;99.90
25280;DHT22;13225;47.804;12.116;2022-07-22T09:27:51;25.70;99.90
25280;DHT22;13225;47.804;12.116;2022-07-22T09:30:20;26.00;99.90
25280;DHT22;13225;47.804;12.116;2022-07-22T09:32:46;26.00;99.90
25280;DHT22;13225;47.804;12.116;2022-07-22T09:35:13;26.00;99.90
25280;DHT22;13225;47.804;12.116;2022-07-22T09:40:18;26.10;99.90
25280;DHT22;13225;47.804;12.116;2022-07-22T09:45:15;26.30;99.90
25280;DHT22;13225;47.804;12.116;2022-07-22T09:47:42;26.40;99.90
25280;DHT22;13225;47.804;12.116;2022-07-22T09:50:22;26.40;99.90
25280;DHT22;13225;47.804;12.116;2022-07-22T09:52:50;26.60;99.90
25280;DHT22;13225;47.804;12.116;2022-07-22T09:55:18;26.80;99.90
25280;DHT22;13225;47.804;12.116;2022-07-22T09:57:44;26.80;99.90
25280;DHT22;13225;47.804;12.116;2022-07-22T10:00:11;26.70;99.90
25280;DHT22;13225;47.804;12.116;2022-07-22T10:02:48;26.70;99.90
25280;DHT22;13225;47.804;12.116;2022-07-22T10:05:17;26.60;99.90
25280;DHT22;13225;47.804;12.116;2022-07-22T10:07:44;26.80;99.90
25280;DHT22;13225;47.804;12.116;2022-07-22T10:10:15;27.10;99.90
25280;DHT22;13225;47.804;12.116;2022-07-22T10:12:42;27.20;99.90
25280;DHT22;13225;47.804;12.116;2022-07-22T10:15:09;27.10;99.90
25280;DHT22;13225;47.804;12.116;2022-07-22T10:17:37;27.20;99.90
25280;DHT22;13225;47.804;12.116;2022-07-22T10:20:05;27.30;99.90
25280;DHT22;13225;47.804;12.116;2022-07-22T10:25:10;27.40;99.90
25280;DHT22;13225;47.804;12.116;2022-07-22T10:27:50;27.40;99.90
25280;DHT22;13225;47.804;12.116;2022-07-22T10:30:19;27.30;99.90
25280;DHT22;13225;47.804;12.116;2022-07-22T10:32:45;27.40;99.90
25280;DHT22;13225;47.804;12.116;2022-07-22T10:35:27;27.50;99.90
25280;DHT22;13225;47.804;12.116;2022-07-22T10:37:56;27.70;99.90
25280;DHT22;13225;47.804;12.116;2022-07-22T10:40:30;27.90;99.90
25280;DHT22;13225;47.804;12.116;2022-07-22T10:45:47;28.10;99.90
25280;DHT22;13225;47.804;12.116;2022-07-22T10:51:07;28.50;99.90
25280;DHT22;13225;47.804;12.116;2022-07-22T10:53:46;28.50;99.90
25280;DHT22;13225;47.804;12.116;2022-07-22T10:58:51;28.50;99.90
25280;DHT22;13225;47.804;12.116;2022-07-22T11:01:20;28.60;99.90
25280;DHT22;13225;47.804;12.116;2022-07-22T11:03:47;28.50;99.90
25280;DHT22;13225;47.804;12.116;2022-07-22T11:06:24;28.60;99.90
25280;DHT22;13225;47.804;12.116;2022-07-22T11:08:52;28.80;99.90
25280;DHT22;13225;47.804;12.116;2022-07-22T11:11:38;29.10;99.90
25280;DHT22;13225;47.804;12.116;2022-07-22T11:16:47;29.10;99.90
25280;DHT22;13225;47.804;12.116;2022-07-22T11:19:13;29.20;99.90
25280;DHT22;13225;47.804;12.116;2022-07-22T11:21:39;29.40;99.90
25280;DHT22;13225;47.804;12.116;2022-07-22T11:24:06;29.50;99.90
25280;DHT22;13225;47.804;12.116;2022-07-22T11:26:46;29.60;99.90
25280;DHT22;13225;47.804;12.116;2022-07-22T11:29:18;29.80;99.90
25280;DHT22;13225;47.804;12.116;2022-07-22T11:31:44;29.80;99.90
25280;DHT22;13225;47.804;12.116;2022-07-22T11:34:14;29.70;99.90
25280;DHT22;13225;47.804;12.116;2022-07-22T11:36:46;29.90;99.90
25280;DHT22;13225;47.804;12.116;2022-07-22T11:39:14;30.20;99.90
25280;DHT22;13225;47.804;12.116;2022-07-22T11:41:43;30.10;99.90
25280;DHT22;13225;47.804;12.116;2022-07-22T11:44:09;30.10;99.90
25280;DHT22;13225;47.804;12.116;2022-07-22T11:46:41;30.10;99.90
25280;DHT22;13225;47.804;12.116;2022-07-22T11:49:08;30.20;99.90
25280;DHT22;13225;47.804;12.116;2022-07-22T11:51:36;30.30;99.90
25280;DHT22;13225;47.804;12.116;2022-07-22T11:54:03;30.30;99.90
25280;DHT22;13225;47.804;12.116;2022-07-22T11:56:31;30.40;99.90
25280;DHT22;13225;47.804;12.116;2022-07-22T11:58:57;30.50;99.90
25280;DHT22;13225;47.804;12.116;2022-07-22T12:01:27;30.60;99.90
25280;DHT22;13225;47.804;12.116;2022-07-22T12:03:58;30.70;99.20
25280;DHT22;13225;47.804;12.116;2022-07-22T12:06:25;30.90;99.80
25280;DHT22;13225;47.804;12.116;2022-07-22T12:08:54;30.70;98.70
25280;DHT22;13225;47.804;12.116;2022-07-22T12:11:22;30.60;98.60
25280;DHT22;13225;47.804;12.116;2022-07-22T12:13:51;30.80;98.20
25280;DHT22;13225;47.804;12.116;2022-07-22T12:16:22;31.20;98.40
25280;DHT22;13225;47.804;12.116;2022-07-22T12:19:12;31.40;97.30
25280;DHT22;13225;47.804;12.116;2022-07-22T12:21:51;31.20;95.80
25280;DHT22;13225;47.804;12.116;2022-07-22T12:24:38;31.10;96.60
25280;DHT22;13225;47.804;12.116;2022-07-22T12:37:24;31.60;94.50
25280;DHT22;13225;47.804;12.116;2022-07-22T12:40:06;31.90;95.60
25280;DHT22;13225;47.804;12.116;2022-07-22T12:42:33;32.20;95.30
25280;DHT22;13225;47.804;12.116;2022-07-22T12:45:00;32.70;94.20
25280;DHT22;13225;47.804;12.116;2022-07-22T12:47:54;33.20;94.10
25280;DHT22;13225;47.804;12.116;2022-07-22T12:50:31;33.70;92.70
25280;DHT22;13225;47.804;12.116;2022-07-22T12:53:15;34.00;92.50
25280;DHT22;13225;47.804;12.116;2022-07-22T12:56:02;34.60;91.90
25280;DHT22;13225;47.804;12.116;2022-07-22T12:58:30;34.70;91.70
25280;DHT22;13225;47.804;12.116;2022-07-22T13:00:58;34.70;92.20
25280;DHT22;13225;47.804;12.116;2022-07-22T13:03:24;34.90;92.00
25280;DHT22;13225;47.804;12.116;2022-07-22T13:05:55;35.10;90.30
25280;DHT22;13225;47.804;12.116;2022-07-22T13:08:22;35.00;91.10
25280;DHT22;13225;47.804;12.116;2022-07-22T13:10:50;35.00;91.90
25280;DHT22;13225;47.804;12.116;2022-07-22T13:13:16;35.00;91.00
25280;DHT22;13225;47.804;12.116;2022-07-22T13:15:41;35.10;91.10
25280;DHT22;13225;47.804;12.116;2022-07-22T13:18:07;35.70;90.40
25280;DHT22;13225;47.804;12.116;2022-07-22T13:20:33;35.60;88.00
25280;DHT22;13225;47.804;12.116;2022-07-22T13:22:59;35.50;90.30
25280;DHT22;13225;47.804;12.116;2022-07-22T13:25:25;35.50;86.20
25280;DHT22;13225;47.804;12.116;2022-07-22T13:27:52;34.70;90.00
25280;DHT22;13225;47.804;12.116;2022-07-22T13:30:18;33.80;90.20
25280;DHT22;13225;47.804;12.116;2022-07-22T13:32:44;34.80;90.20
25280;DHT22;13225;47.804;12.116;2022-07-22T13:35:12;35.20;88.70
25280;DHT22;13225;47.804;12.116;2022-07-22T13:37:38;35.60;87.90
25280;DHT22;13225;47.804;12.116;2022-07-22T13:40:04;35.60;87.40
25280;DHT22;13225;47.804;12.116;2022-07-22T13:42:30;35.30;89.10
25280;DHT22;13225;47.804;12.116;2022-07-22T13:44:56;35.40;90.00
25280;DHT22;13225;47.804;12.116;2022-07-22T13:47:22;35.70;88.80
25280;DHT22;13225;47.804;12.116;2022-07-22T13:49:48;35.80;87.90
25280;DHT22;13225;47.804;12.116;2022-07-22T13:52:15;35.70;88.90
25280;DHT22;13225;47.804;12.116;2022-07-22T13:54:41;36.30;86.70
25280;DHT22;13225;47.804;12.116;2022-07-22T13:57:07;36.40;86.10
25280;DHT22;13225;47.804;12.116;2022-07-22T13:59:34;36.50;86.80
25280;DHT22;13225;47.804;12.116;2022-07-22T14:02:00;36.60;85.40
25280;DHT22;13225;47.804;12.116;2022-07-22T14:04:27;36.10;84.90
25280;DHT22;13225;47.804;12.116;2022-07-22T14:06:53;36.30;85.50
25280;DHT22;13225;47.804;12.116;2022-07-22T14:09:19;36.70;84.40
25280;DHT22;13225;47.804;12.116;2022-07-22T14:11:45;36.50;83.00
25280;DHT22;13225;47.804;12.116;2022-07-22T14:14:13;36.20;84.00
25280;DHT22;13225;47.804;12.116;2022-07-22T14:16:39;36.50;81.90
25280;DHT22;13225;47.804;12.116;2022-07-22T14:19:10;36.90;82.40
25280;DHT22;13225;47.804;12.116;2022-07-22T14:21:38;36.60;82.00
25280;DHT22;13225;47.804;12.116;2022-07-22T14:24:05;36.80;81.20
25280;DHT22;13225;47.804;12.116;2022-07-22T14:26:31;36.40;82.00
25280;DHT22;13225;47.804;12.116;2022-07-22T14:28:58;36.80;81.20
25280;DHT22;13225;47.804;12.116;2022-07-22T14:31:24;37.10;81.00
25280;DHT22;13225;47.804;12.116;2022-07-22T14:33:50;37.00;81.20
25280;DHT22;13225;47.804;12.116;2022-07-22T14:36:16;36.80;81.00
25280;DHT22;13225;47.804;12.116;2022-07-22T14:38:42;36.90;79.70
25280;DHT22;13225;47.804;12.116;2022-07-22T14:41:08;36.90;79.40
25280;DHT22;13225;47.804;12.116;2022-07-22T14:43:34;37.40;78.00
25280;DHT22;13225;47.804;12.116;2022-07-22T14:46:01;37.50;77.60
25280;DHT22;13225;47.804;12.116;2022-07-22T14:48:28;37.50;78.00
25280;DHT22;13225;47.804;12.116;2022-07-22T14:50:53;37.60;78.10
25280;DHT22;13225;47.804;12.116;2022-07-22T14:53:19;37.40;76.40
25280;DHT22;13225;47.804;12.116;2022-07-22T14:55:45;36.70;76.70
25280;DHT22;13225;47.804;12.116;2022-07-22T14:58:11;36.80;78.40
25280;DHT22;13225;47.804;12.116;2022-07-22T15:00:37;37.10;77.70
25280;DHT22;13225;47.804;12.116;2022-07-22T15:03:02;37.40;77.90
25280;DHT22;13225;47.804;12.116;2022-07-22T15:05:29;37.60;76.20
25280;DHT22;13225;47.804;12.116;2022-07-22T15:07:54;37.70;75.60
25280;DHT22;13225;47.804;12.116;2022-07-22T15:10:20;37.60;74.80
25280;DHT22;13225;47.804;12.116;2022-07-22T15:12:46;37.60;75.10
25280;DHT22;13225;47.804;12.116;2022-07-22T15:15:11;37.70;73.80
25280;DHT22;13225;47.804;12.116;2022-07-22T15:17:38;37.60;73.50
25280;DHT22;13225;47.804;12.116;2022-07-22T15:20:06;37.60;72.40
25280;DHT22;13225;47.804;12.116;2022-07-22T15:22:32;37.20;76.60
25280;DHT22;13225;47.804;12.116;2022-07-22T15:24:59;37.90;72.90
25280;DHT22;13225;47.804;12.116;2022-07-22T15:27:25;38.10;71.10
25280;DHT22;13225;47.804;12.116;2022-07-22T15:29:50;38.00;71.60
25280;DHT22;13225;47.804;12.116;2022-07-22T15:32:17;38.00;72.10
25280;DHT22;13225;47.804;12.116;2022-07-22T15:34:43;38.10;70.90
25280;DHT22;13225;47.804;12.116;2022-07-22T15:37:10;38.30;70.60
25280;DHT22;13225;47.804;12.116;2022-07-22T15:39:36;38.60;72.60
25280;DHT22;13225;47.804;12.116;2022-07-22T15:42:02;39.10;69.80
25280;DHT22;13225;47.804;12.116;2022-07-22T15:44:28;39.00;67.30
25280;DHT22;13225;47.804;12.116;2022-07-22T15:46:54;38.90;67.90
25280;DHT22;13225;47.804;12.116;2022-07-22T15:49:20;38.60;69.80
25280;DHT22;13225;47.804;12.116;2022-07-22T15:51:46;38.50;69.00